sensor_id;sensor_type;location;lat;lon;timestamp;pressure;altitude;pressure_sealevel;temperature;humidity
4745;BME280;2386;42.138;24.746;2022-10-16T00:01:30;100315.34;;;14.15;94.09
4745;BME280;2386;42.138;24.746;2022-10-16T00:03:57;100313.34;;;14.10;95.06
4745;BME280;2386;42.138;24.746;2022-10-16T00:06:24;100315.81;;;14.12;95.01
4745;BME280;2386;42.138;24.746;2022-10-16T00:08:51;100315.81;;;14.12;94.76
4745;BME280;2386;42.138;24.746;2022-10-16T00:11:21;100321.06;;;14.02;95.30
4745;BME280;2386;42.138;24.746;2022-10-16T00:13:48;100321.06;;;14.02;95.19
4745;BME280;2386;42.138;24.746;2022-10-16T00:16:15;100318.56;;;14.00;96.10
4745;BME280;2386;42.138;24.746;2022-10-16T00:18:42;100312.88;;;14.02;95.30
4745;BME280;2386;42.138;24.746;2022-10-16T00:21:10;100321.75;;;13.86;98.13
4745;BME280;2386;42.138;24.746;2022-10-16T00:23:36;100329.81;;;13.92;98.08
4745;BME280;2386;42.138;24.746;2022-10-16T00:26:05;100326.84;;;13.82;99.58
4745;BME280;2386;42.138;24.746;2022-10-16T00:28:31;100320.69;;;13.87;98.56
4745;BME280;2386;42.138;24.746;2022-10-16T00:30:57;100312.97;;;13.84;98.91
4745;BME280;2386;42.138;24.746;2022-10-16T00:33:22;100310.13;;;13.78;99.41
4745;BME280;2386;42.138;24.746;2022-10-16T00:35:48;100325.28;;;13.74;100.00
4745;BME280;2386;42.138;24.746;2022-10-16T00:38:14;100316.25;;;13.62;100.00
4745;BME280;2386;42.138;24.746;2022-10-16T00:40:40;100322.63;;;13.56;100.00
4745;BME280;2386;42.138;24.746;2022-10-16T00:45:56;100325.53;;;13.31;100.00
4745;BME280;2386;42.138;24.746;2022-10-16T00:48:22;100328.88;;;13.33;100.00
4745;BME280;2386;42.138;24.746;2022-10-16T00:50:47;100326.25;;;13.38;100.00
4745;BME280;2386;42.138;24.746;2022-10-16T00:53:13;100337.78;;;13.52;100.00
4745;BME280;2386;42.138;24.746;2022-10-16T00:55:39;100330.31;;;13.47;100.00
4745;BME280;2386;42.138;24.746;2022-10-16T00:58:05;100334.69;;;13.48;100.00
4745;BME280;2386;42.138;24.746;2022-10-16T01:00:30;100339.91;;;13.50;100.00
4745;BME280;2386;42.138;24.746;2022-10-16T01:02:59;100351.75;;;13.44;100.00
4745;BME280;2386;42.138;24.746;2022-10-16T01:06:12;100354.47;;;13.44;100.00
4745;BME280;2386;42.138;24.746;2022-10-16T01:09:16;100358.78;;;13.22;100.00
4745;BME280;2386;42.138;24.746;2022-10-16T01:14:50;100377.31;;;13.31;100.00
4745;BME280;2386;42.138;24.746;2022-10-16T01:17:31;100373.38;;;13.27;100.00
4745;BME280;2386;42.138;24.746;2022-10-16T01:20:08;100375.03;;;13.28;100.00
4745;BME280;2386;42.138;24.746;2022-10-16T01:25:14;100373.47;;;13.21;100.00
4745;BME280;2386;42.138;24.746;2022-10-16T01:27:43;100366.25;;;13.08;100.00
4745;BME280;2386;42.138;24.746;2022-10-16T01:30:18;100365.50;;;13.01;100.00
4745;BME280;2386;42.138;24.746;2022-10-16T01:32:50;100368.00;;;12.84;100.00
4745;BME280;2386;42.138;24.746;2022-10-16T01:35:21;100371.63;;;12.78;100.00
4745;BME280;2386;42.138;24.746;2022-10-16T01:38:08;100371.03;;;12.76;100.00
4745;BME280;2386;42.138;24.746;2022-10-16T01:40:38;100383.88;;;12.69;100.00
4745;BME280;2386;42.138;24.746;2022-10-16T01:43:24;100382.00;;;12.69;100.00
4745;BME280;2386;42.138;24.746;2022-10-16T01:45:51;100388.28;;;12.70;100.00
4745;BME280;2386;42.138;24.746;2022-10-16T01:48:19;100378.75;;;12.61;100.00
4745;BME280;2386;42.138;24.746;2022-10-16T01:50:53;100393.25;;;12.73;100.00
4745;BME280;2386;42.138;24.746;2022-10-16T01:53:20;100397.50;;;12.69;100.00
4745;BME280;2386;42.138;24.746;2022-10-16T01:55:47;100397.50;;;12.69;100.00
4745;BME280;2386;42.138;24.746;2022-10-16T01:58:15;100401.44;;;12.73;100.00
4745;BME280;2386;42.138;24.746;2022-10-16T02:00:43;100390.84;;;12.46;100.00
4745;BME280;2386;42.138;24.746;2022-10-16T02:03:11;100399.72;;;12.35;100.00
4745;BME280;2386;42.138;24.746;2022-10-16T02:08:07;100396.88;;;12.48;100.00
4745;BME280;2386;42.138;24.746;2022-10-16T02:10:34;100393.13;;;12.49;100.00
4745;BME280;2386;42.138;24.746;2022-10-16T02:13:08;100393.56;;;12.46;100.00
4745;BME280;2386;42.138;24.746;2022-10-16T02:15:35;100400.78;;;12.34;100.00
4745;BME280;2386;42.138;24.746;2022-10-16T02:18:05;100401.91;;;12.27;100.00
4745;BME280;2386;42.138;24.746;2022-10-16T02:20:45;100407.91;;;12.35;100.00
4745;BME280;2386;42.138;24.746;2022-10-16T02:23:19;100404.84;;;12.25;100.00
4745;BME280;2386;42.138;24.746;2022-10-16T02:25:50;100404.28;;;12.16;100.00
4745;BME280;2386;42.138;24.746;2022-10-16T02:28:20;100400.13;;;12.14;100.00
4745;BME280;2386;42.138;24.746;2022-10-16T02:33:22;100398.78;;;12.23;100.00
4745;BME280;2386;42.138;24.746;2022-10-16T02:35:50;100404.06;;;12.18;100.00
4745;BME280;2386;42.138;24.746;2022-10-16T02:38:17;100409.94;;;12.40;100.00
4745;BME280;2386;42.138;24.746;2022-10-16T02:40:43;100394.06;;;12.12;100.00
4745;BME280;2386;42.138;24.746;2022-10-16T02:43:09;100410.59;;;12.10;100.00
4745;BME280;2386;42.138;24.746;2022-10-16T02:45:35;100406.00;;;12.11;100.00
4745;BME280;2386;42.138;24.746;2022-10-16T02:48:01;100411.00;;;12.14;100.00
4745;BME280;2386;42.138;24.746;2022-10-16T02:50:26;100409.22;;;12.01;100.00
4745;BME280;2386;42.138;24.746;2022-10-16T02:52:52;100420.75;;;11.97;100.00
4745;BME280;2386;42.138;24.746;2022-10-16T02:55:17;100418.38;;;11.82;100.00
4745;BME280;2386;42.138;24.746;2022-10-16T02:57:43;100423.59;;;11.83;100.00
4745;BME280;2386;42.138;24.746;2022-10-16T03:00:09;100422.53;;;11.84;100.00
4745;BME280;2386;42.138;24.746;2022-10-16T03:02:35;100414.19;;;11.79;100.00
4745;BME280;2386;42.138;24.746;2022-10-16T03:05:00;100426.22;;;11.90;100.00
4745;BME280;2386;42.138;24.746;2022-10-16T03:07:26;100434.84;;;11.87;100.00
4745;BME280;2386;42.138;24.746;2022-10-16T03:09:51;100437.72;;;11.92;100.00
4745;BME280;2386;42.138;24.746;2022-10-16T03:12:17;100432.41;;;11.79;100.00
4745;BME280;2386;42.138;24.746;2022-10-16T03:14:42;100425.06;;;11.79;100.00
4745;BME280;2386;42.138;24.746;2022-10-16T03:17:08;100439.53;;;12.05;100.00
4745;BME280;2386;42.138;24.746;2022-10-16T03:19:33;100433.19;;;12.11;100.00
4745;BME280;2386;42.138;24.746;2022-10-16T03:21:59;100440.56;;;12.04;100.00
4745;BME280;2386;42.138;24.746;2022-10-16T03:24:25;100448.03;;;12.15;100.00
4745;BME280;2386;42.138;24.746;2022-10-16T03:26:50;100448.38;;;12.25;100.00
4745;BME280;2386;42.138;24.746;2022-10-16T03:29:16;100442.59;;;12.40;100.00
4745;BME280;2386;42.138;24.746;2022-10-16T03:31:41;100448.25;;;12.38;100.00
4745;BME280;2386;42.138;24.746;2022-10-16T03:34:06;100447.31;;;12.26;100.00
4745;BME280;2386;42.138;24.746;2022-10-16T03:36:33;100443.88;;;12.37;100.00
4745;BME280;2386;42.138;24.746;2022-10-16T03:38:58;100443.31;;;12.29;100.00
4745;BME280;2386;42.138;24.746;2022-10-16T03:41:24;100445.31;;;12.15;100.00
4745;BME280;2386;42.138;24.746;2022-10-16T03:43:49;100439.78;;;11.97;100.00
4745;BME280;2386;42.138;24.746;2022-10-16T03:46:14;100461.28;;;12.05;100.00
4745;BME280;2386;42.138;24.746;2022-10-16T03:48:40;100449.44;;;11.93;100.00
4745;BME280;2386;42.138;24.746;2022-10-16T03:51:06;100449.13;;;12.07;100.00
4745;BME280;2386;42.138;24.746;2022-10-16T03:53:31;100458.28;;;12.13;100.00
4745;BME280;2386;42.138;24.746;2022-10-16T03:55:57;100460.22;;;12.06;100.00
4745;BME280;2386;42.138;24.746;2022-10-16T03:58:23;100469.44;;;12.05;100.00
4745;BME280;2386;42.138;24.746;2022-10-16T04:00:48;100464.59;;;12.07;100.00
4745;BME280;2386;42.138;24.746;2022-10-16T04:03:14;100462.59;;;11.96;100.00
4745;BME280;2386;42.138;24.746;2022-10-16T04:05:39;100474.34;;;11.90;100.00
4745;BME280;2386;42.138;24.746;2022-10-16T04:08:05;100461.31;;;11.98;100.00
4745;BME280;2386;42.138;24.746;2022-10-16T04:10:31;100471.91;;;11.81;100.00
4745;BME280;2386;42.138;24.746;2022-10-16T04:12:57;100461.78;;;11.89;100.00
4745;BME280;2386;42.138;24.746;2022-10-16T04:15:25;100469.41;;;11.80;100.00
4745;BME280;2386;42.138;24.746;2022-10-16T04:17:51;100455.19;;;11.78;100.00
4745;BME280;2386;42.138;24.746;2022-10-16T04:20:18;100471.69;;;11.83;100.00
4745;BME280;2386;42.138;24.746;2022-10-16T04:22:43;100468.97;;;11.76;100.00
4745;BME280;2386;42.138;24.746;2022-10-16T04:25:09;100465.72;;;11.55;100.00
4745;BME280;2386;42.138;24.746;2022-10-16T04:27:36;100464.91;;;11.54;100.00
4745;BME280;2386;42.138;24.746;2022-10-16T04:30:03;100469.09;;;11.50;100.00
4745;BME280;2386;42.138;24.746;2022-10-16T04:32:28;100466.66;;;11.35;100.00
4745;BME280;2386;42.138;24.746;2022-10-16T04:34:53;100479.59;;;11.40;100.00
4745;BME280;2386;42.138;24.746;2022-10-16T04:37:23;100480.78;;;11.50;100.00
4745;BME280;2386;42.138;24.746;2022-10-16T04:39:48;100470.00;;;11.31;100.00
4745;BME280;2386;42.138;24.746;2022-10-16T04:42:14;100477.97;;;11.26;100.00
4745;BME280;2386;42.138;24.746;2022-10-16T04:44:39;100474.63;;;11.24;100.00
4745;BME280;2386;42.138;24.746;2022-10-16T04:47:04;100476.91;;;11.27;100.00
4745;BME280;2386;42.138;24.746;2022-10-16T04:49:30;100470.81;;;11.38;100.00
4745;BME280;2386;42.138;24.746;2022-10-16T04:51:55;100477.56;;;11.22;100.00
4745;BME280;2386;42.138;24.746;2022-10-16T04:54:21;100481.94;;;11.23;100.00
4745;BME280;2386;42.138;24.746;2022-10-16T04:56:46;100486.69;;;11.41;100.00
4745;BME280;2386;42.138;24.746;2022-10-16T04:59:14;100493.41;;;11.32;100.00
4745;BME280;2386;42.138;24.746;2022-10-16T05:01:39;100506.38;;;11.30;100.00
4745;BME280;2386;42.138;24.746;2022-10-16T05:04:05;100493.44;;;11.18;100.00
4745;BME280;2386;42.138;24.746;2022-10-16T05:06:30;100501.78;;;11.24;100.00
4745;BME280;2386;42.138;24.746;2022-10-16T05:08:56;100495.69;;;11.35;100.00
4745;BME280;2386;42.138;24.746;2022-10-16T05:11:21;100502.19;;;11.27;100.00
4745;BME280;2386;42.138;24.746;2022-10-16T05:13:46;100506.41;;;11.16;100.00
4745;BME280;2386;42.138;24.746;2022-10-16T05:16:12;100514.13;;;11.19;100.00
4745;BME280;2386;42.138;24.746;2022-10-16T05:18:37;100495.31;;;11.25;100.00
4745;BME280;2386;42.138;24.746;2022-10-16T05:21:03;100512.03;;;11.15;100.00
4745;BME280;2386;42.138;24.746;2022-10-16T05:23:28;100515.16;;;11.18;100.00
4745;BME280;2386;42.138;24.746;2022-10-16T05:25:55;100527.44;;;11.41;100.00
4745;BME280;2386;42.138;24.746;2022-10-16T05:28:23;100518.03;;;11.37;100.00
4745;BME280;2386;42.138;24.746;2022-10-16T05:30:51;100513.06;;;11.20;100.00
4745;BME280;2386;42.138;24.746;2022-10-16T05:33:16;100533.53;;;11.30;100.00
4745;BME280;2386;42.138;24.746;2022-10-16T05:35:42;100528.94;;;11.24;100.00
4745;BME280;2386;42.138;24.746;2022-10-16T05:38:09;100534.78;;;11.34;100.00
4745;BME280;2386;42.138;24.746;2022-10-16T05:40:34;100540.81;;;11.36;100.00
4745;BME280;2386;42.138;24.746;2022-10-16T05:43:00;100549.00;;;11.23;100.00
4745;BME280;2386;42.138;24.746;2022-10-16T05:45:25;100540.66;;;11.17;100.00
4745;BME280;2386;42.138;24.746;2022-10-16T05:47:51;100551.06;;;11.34;100.00
4745;BME280;2386;42.138;24.746;2022-10-16T05:50:16;100557.50;;;11.46;100.00
4745;BME280;2386;42.138;24.746;2022-10-16T05:52:42;100563.16;;;11.44;100.00
4745;BME280;2386;42.138;24.746;2022-10-16T05:55:07;100553.94;;;11.52;100.00
4745;BME280;2386;42.138;24.746;2022-10-16T05:57:33;100563.34;;;11.56;100.00
4745;BME280;2386;42.138;24.746;2022-10-16T05:59:58;100552.34;;;11.18;100.00
4745;BME280;2386;42.138;24.746;2022-10-16T06:02:24;100565.06;;;11.31;100.00
4745;BME280;2386;42.138;24.746;2022-10-16T06:04:51;100563.25;;;11.11;100.00
4745;BME280;2386;42.138;24.746;2022-10-16T06:07:18;100565.13;;;10.98;100.00
4745;BME280;2386;42.138;24.746;2022-10-16T06:09:43;100578.28;;;11.14;100.00
4745;BME280;2386;42.138;24.746;2022-10-16T06:12:08;100579.56;;;10.85;100.00
4745;BME280;2386;42.138;24.746;2022-10-16T06:14:34;100576.84;;;10.98;100.00
4745;BME280;2386;42.138;24.746;2022-10-16T06:16:59;100574.53;;;11.08;100.00
4745;BME280;2386;42.138;24.746;2022-10-16T06:19:25;100581.38;;;11.17;100.00
4745;BME280;2386;42.138;24.746;2022-10-16T06:21:50;100579.91;;;11.22;100.00
4745;BME280;2386;42.138;24.746;2022-10-16T06:24:15;100578.88;;;11.16;100.00
4745;BME280;2386;42.138;24.746;2022-10-16T06:26:41;100587.84;;;11.23;100.00
4745;BME280;2386;42.138;24.746;2022-10-16T06:29:06;100585.34;;;11.28;100.00
4745;BME280;2386;42.138;24.746;2022-10-16T06:31:32;100582.81;;;11.33;100.00
4745;BME280;2386;42.138;24.746;2022-10-16T06:33:59;100586.56;;;11.45;100.00
4745;BME280;2386;42.138;24.746;2022-10-16T06:36:25;100584.22;;;11.62;100.00
4745;BME280;2386;42.138;24.746;2022-10-16T06:38:51;100590.47;;;11.69;100.00
4745;BME280;2386;42.138;24.746;2022-10-16T06:41:19;100604.81;;;11.90;100.00
4745;BME280;2386;42.138;24.746;2022-10-16T06:43:46;100596.63;;;12.03;100.00
4745;BME280;2386;42.138;24.746;2022-10-16T06:46:14;100597.19;;;12.18;100.00
4745;BME280;2386;42.138;24.746;2022-10-16T06:48:40;100598.59;;;12.27;100.00
4745;BME280;2386;42.138;24.746;2022-10-16T06:51:09;100612.00;;;12.22;100.00
4745;BME280;2386;42.138;24.746;2022-10-16T06:53:36;100614.16;;;12.13;100.00
4745;BME280;2386;42.138;24.746;2022-10-16T06:56:09;100611.41;;;12.13;100.00
4745;BME280;2386;42.138;24.746;2022-10-16T06:58:35;100607.59;;;12.28;100.00
4745;BME280;2386;42.138;24.746;2022-10-16T07:01:00;100616.13;;;12.38;100.00
4745;BME280;2386;42.138;24.746;2022-10-16T07:03:26;100620.91;;;12.42;100.00
4745;BME280;2386;42.138;24.746;2022-10-16T07:05:51;100612.13;;;12.40;100.00
4745;BME280;2386;42.138;24.746;2022-10-16T07:08:17;100605.00;;;12.39;100.00
4745;BME280;2386;42.138;24.746;2022-10-16T07:10:42;100617.31;;;12.48;100.00
4745;BME280;2386;42.138;24.746;2022-10-16T07:13:07;100617.94;;;12.50;100.00
4745;BME280;2386;42.138;24.746;2022-10-16T07:15:33;100629.09;;;12.67;100.00
4745;BME280;2386;42.138;24.746;2022-10-16T07:17:59;100625.09;;;12.70;100.00
4745;BME280;2386;42.138;24.746;2022-10-16T07:20:25;100628.22;;;12.73;100.00
4745;BME280;2386;42.138;24.746;2022-10-16T07:22:51;100625.72;;;12.72;100.00
4745;BME280;2386;42.138;24.746;2022-10-16T07:25:16;100617.22;;;12.87;100.00
4745;BME280;2386;42.138;24.746;2022-10-16T07:27:42;100609.84;;;12.94;100.00
4745;BME280;2386;42.138;24.746;2022-10-16T07:30:08;100613.28;;;13.07;100.00
4745;BME280;2386;42.138;24.746;2022-10-16T07:32:33;100618.34;;;13.04;100.00
4745;BME280;2386;42.138;24.746;2022-10-16T07:34:59;100615.31;;;13.19;100.00
4745;BME280;2386;42.138;24.746;2022-10-16T07:37:24;100611.94;;;13.23;100.00
4745;BME280;2386;42.138;24.746;2022-10-16T07:39:49;100610.81;;;13.31;100.00
4745;BME280;2386;42.138;24.746;2022-10-16T07:42:15;100614.00;;;13.46;100.00
4745;BME280;2386;42.138;24.746;2022-10-16T07:44:40;100615.06;;;13.63;100.00
4745;BME280;2386;42.138;24.746;2022-10-16T07:47:06;100616.00;;;13.75;100.00
4745;BME280;2386;42.138;24.746;2022-10-16T07:49:32;100620.09;;;13.85;100.00
4745;BME280;2386;42.138;24.746;2022-10-16T07:51:57;100609.16;;;13.85;100.00
4745;BME280;2386;42.138;24.746;2022-10-16T07:54:22;100617.06;;;13.93;100.00
4745;BME280;2386;42.138;24.746;2022-10-16T07:56:48;100611.75;;;13.98;100.00
4745;BME280;2386;42.138;24.746;2022-10-16T07:59:13;100614.25;;;13.99;99.71
4745;BME280;2386;42.138;24.746;2022-10-16T08:01:38;100618.03;;;13.98;99.96
4745;BME280;2386;42.138;24.746;2022-10-16T08:04:05;100623.66;;;14.15;99.20
4745;BME280;2386;42.138;24.746;2022-10-16T08:06:35;100616.91;;;14.18;97.86
4745;BME280;2386;42.138;24.746;2022-10-16T08:09:01;100619.94;;;14.28;97.52
4745;BME280;2386;42.138;24.746;2022-10-16T08:11:26;100602.34;;;14.24;96.01
4745;BME280;2386;42.138;24.746;2022-10-16T08:13:52;100604.06;;;14.36;96.38
4745;BME280;2386;42.138;24.746;2022-10-16T08:16:17;100612.84;;;14.57;96.89
4745;BME280;2386;42.138;24.746;2022-10-16T08:18:43;100610.50;;;14.60;94.36
4745;BME280;2386;42.138;24.746;2022-10-16T08:21:15;100617.75;;;14.66;93.98
4745;BME280;2386;42.138;24.746;2022-10-16T08:23:41;100617.91;;;14.83;93.13
4745;BME280;2386;42.138;24.746;2022-10-16T08:26:07;100604.47;;;14.93;93.19
4745;BME280;2386;42.138;24.746;2022-10-16T08:28:34;100614.13;;;15.07;91.55
4745;BME280;2386;42.138;24.746;2022-10-16T08:31:13;100602.72;;;15.10;90.62
4745;BME280;2386;42.138;24.746;2022-10-16T08:33:41;100617.72;;;15.20;89.55
4745;BME280;2386;42.138;24.746;2022-10-16T08:36:07;100604.63;;;15.22;87.65
4745;BME280;2386;42.138;24.746;2022-10-16T08:38:33;100609.63;;;15.36;86.60
4745;BME280;2386;42.138;24.746;2022-10-16T08:49:12;100611.06;;;15.62;82.51
4745;BME280;2386;42.138;24.746;2022-10-16T08:51:39;100607.25;;;15.63;83.13
4745;BME280;2386;42.138;24.746;2022-10-16T08:54:06;100613.41;;;15.70;81.98
4745;BME280;2386;42.138;24.746;2022-10-16T08:56:34;100619.47;;;15.84;80.90
4745;BME280;2386;42.138;24.746;2022-10-16T08:58:59;100609.09;;;15.98;78.12
4745;BME280;2386;42.138;24.746;2022-10-16T09:01:36;100604.81;;;16.02;79.37
4745;BME280;2386;42.138;24.746;2022-10-16T09:09:51;100608.91;;;16.16;78.17
4745;BME280;2386;42.138;24.746;2022-10-16T09:12:26;100618.66;;;16.24;76.58
4745;BME280;2386;42.138;24.746;2022-10-16T09:17:53;100608.22;;;16.37;70.59
4745;BME280;2386;42.138;24.746;2022-10-16T09:23:26;100598.03;;;16.50;70.01
4745;BME280;2386;42.138;24.746;2022-10-16T09:25:53;100598.16;;;16.55;69.80
4745;BME280;2386;42.138;24.746;2022-10-16T09:28:19;100588.34;;;16.59;68.78
4745;BME280;2386;42.138;24.746;2022-10-16T09:30:45;100596.53;;;16.70;68.94
4745;BME280;2386;42.138;24.746;2022-10-16T09:33:12;100600.53;;;16.80;69.60
4745;BME280;2386;42.138;24.746;2022-10-16T09:35:42;100592.81;;;16.77;68.73
4745;BME280;2386;42.138;24.746;2022-10-16T09:38:21;100587.91;;;16.79;65.43
4745;BME280;2386;42.138;24.746;2022-10-16T09:40:47;100599.88;;;16.89;63.58
4745;BME280;2386;42.138;24.746;2022-10-16T09:46:19;100579.13;;;16.93;62.92
4745;BME280;2386;42.138;24.746;2022-10-16T09:48:50;100580.13;;;16.87;63.64
4745;BME280;2386;42.138;24.746;2022-10-16T09:51:22;100578.28;;;16.93;62.64
4745;BME280;2386;42.138;24.746;2022-10-16T09:53:55;100571.25;;;16.97;64.82
4745;BME280;2386;42.138;24.746;2022-10-16T09:56:24;100572.78;;;17.09;65.37
4745;BME280;2386;42.138;24.746;2022-10-16T09:58:53;100558.53;;;17.07;62.21
4745;BME280;2386;42.138;24.746;2022-10-16T10:01:19;100574.03;;;17.19;60.31
4745;BME280;2386;42.138;24.746;2022-10-16T10:03:45;100564.22;;;17.23;59.91
4745;BME280;2386;42.138;24.746;2022-10-16T10:06:23;100567.38;;;17.31;61.30
4745;BME280;2386;42.138;24.746;2022-10-16T10:08:54;100555.47;;;17.26;59.21
4745;BME280;2386;42.138;24.746;2022-10-16T10:11:56;100559.47;;;17.35;57.63
4745;BME280;2386;42.138;24.746;2022-10-16T10:14:37;100552.38;;;17.39;57.97
4745;BME280;2386;42.138;24.746;2022-10-16T10:19:44;100550.63;;;17.50;56.04
4745;BME280;2386;42.138;24.746;2022-10-16T10:38:11;100530.63;;;17.71;53.45
4745;BME280;2386;42.138;24.746;2022-10-16T10:40:42;100536.75;;;17.78;53.93
4745;BME280;2386;42.138;24.746;2022-10-16T10:43:40;100533.75;;;17.80;52.67
4745;BME280;2386;42.138;24.746;2022-10-16T10:46:14;100527.19;;;17.81;52.85
4745;BME280;2386;42.138;24.746;2022-10-16T10:54:32;100520.13;;;17.90;52.89
4745;BME280;2386;42.138;24.746;2022-10-16T11:05:08;100511.56;;;18.08;51.13
4745;BME280;2386;42.138;24.746;2022-10-16T11:07:32;100515.69;;;18.11;51.38
4745;BME280;2386;42.138;24.746;2022-10-16T11:10:14;100518.75;;;18.14;51.60
4745;BME280;2386;42.138;24.746;2022-10-16T11:12:44;100517.63;;;18.10;51.01
4745;BME280;2386;42.138;24.746;2022-10-16T11:15:22;100516.59;;;18.16;50.16
4745;BME280;2386;42.138;24.746;2022-10-16T11:17:55;100507.25;;;18.17;51.21
4745;BME280;2386;42.138;24.746;2022-10-16T11:20:34;100511.72;;;18.23;50.57
4745;BME280;2386;42.138;24.746;2022-10-16T11:23:09;100511.16;;;18.21;48.57
4745;BME280;2386;42.138;24.746;2022-10-16T11:25:39;100495.75;;;18.20;49.56
4745;BME280;2386;42.138;24.746;2022-10-16T11:28:12;100503.00;;;18.31;49.36
4745;BME280;2386;42.138;24.746;2022-10-16T11:38:58;100489.00;;;18.33;45.87
4745;BME280;2386;42.138;24.746;2022-10-16T11:47:01;100491.50;;;18.34;48.45
4745;BME280;2386;42.138;24.746;2022-10-16T11:49:32;100486.00;;;18.34;47.70
4745;BME280;2386;42.138;24.746;2022-10-16T11:52:07;100486.63;;;18.42;46.84
4745;BME280;2386;42.138;24.746;2022-10-16T11:54:54;100493.81;;;18.48;46.68
4745;BME280;2386;42.138;24.746;2022-10-16T11:57:24;100499.31;;;18.48;46.68
4745;BME280;2386;42.138;24.746;2022-10-16T12:00:07;100495.78;;;18.52;47.66
4745;BME280;2386;42.138;24.746;2022-10-16T12:02:43;100498.25;;;18.54;47.11
4745;BME280;2386;42.138;24.746;2022-10-16T12:07:46;100497.91;;;18.45;47.29
4745;BME280;2386;42.138;24.746;2022-10-16T12:10:26;100502.88;;;18.48;46.66
4745;BME280;2386;42.138;24.746;2022-10-16T12:12:53;100498.25;;;18.54;46.20
4745;BME280;2386;42.138;24.746;2022-10-16T12:15:30;100490.59;;;18.56;48.37
4745;BME280;2386;42.138;24.746;2022-10-16T12:17:56;100494.16;;;18.56;48.80
4745;BME280;2386;42.138;24.746;2022-10-16T12:20:29;100496.63;;;18.58;47.11
4745;BME280;2386;42.138;24.746;2022-10-16T12:23:00;100506.03;;;18.62;46.39
4745;BME280;2386;42.138;24.746;2022-10-16T12:25:34;100500.31;;;18.68;48.07
4745;BME280;2386;42.138;24.746;2022-10-16T12:28:05;100500.59;;;18.67;48.41
4745;BME280;2386;42.138;24.746;2022-10-16T12:30:34;100493.47;;;18.71;47.69
4745;BME280;2386;42.138;24.746;2022-10-16T12:33:05;100496.22;;;18.71;49.05
4745;BME280;2386;42.138;24.746;2022-10-16T12:35:35;100492.91;;;18.69;48.94
4745;BME280;2386;42.138;24.746;2022-10-16T12:40:45;100496.22;;;18.71;49.08
4745;BME280;2386;42.138;24.746;2022-10-16T12:43:37;100498.97;;;18.71;48.76
4745;BME280;2386;42.138;24.746;2022-10-16T12:46:51;100494.56;;;18.70;48.57
4745;BME280;2386;42.138;24.746;2022-10-16T12:48:51;100498.13;;;18.70;48.19
4745;BME280;2386;42.138;24.746;2022-10-16T13:02:26;100504.25;;;18.78;48.32
4745;BME280;2386;42.138;24.746;2022-10-16T13:10:46;100505.63;;;18.80;47.95
4745;BME280;2386;42.138;24.746;2022-10-16T13:19:30;100506.16;;;18.77;48.39
4745;BME280;2386;42.138;24.746;2022-10-16T13:27:34;100513.31;;;18.78;48.40
4745;BME280;2386;42.138;24.746;2022-10-16T13:30:14;100517.97;;;18.78;48.39
4745;BME280;2386;42.138;24.746;2022-10-16T13:32:44;100509.09;;;18.65;47.44
4745;BME280;2386;42.138;24.746;2022-10-16T13:35:28;100513.53;;;18.71;46.74
4745;BME280;2386;42.138;24.746;2022-10-16T13:40:30;100514.94;;;18.74;47.56
4745;BME280;2386;42.138;24.746;2022-10-16T13:42:55;100509.69;;;18.73;48.36
4745;BME280;2386;42.138;24.746;2022-10-16T13:45:23;100515.09;;;18.62;46.43
4745;BME280;2386;42.138;24.746;2022-10-16T13:48:00;100511.00;;;18.65;48.59
4745;BME280;2386;42.138;24.746;2022-10-16T13:50:26;100501.63;;;18.61;48.05
4745;BME280;2386;42.138;24.746;2022-10-16T13:52:51;100513.19;;;18.63;48.59
4745;BME280;2386;42.138;24.746;2022-10-16T13:55:18;100514.84;;;18.64;48.98
4745;BME280;2386;42.138;24.746;2022-10-16T13:57:44;100510.09;;;18.54;49.35
4745;BME280;2386;42.138;24.746;2022-10-16T14:02:50;100516.97;;;18.57;49.32
4745;BME280;2386;42.138;24.746;2022-10-16T14:05:17;100507.56;;;18.48;48.74
4745;BME280;2386;42.138;24.746;2022-10-16T14:07:42;100516.38;;;18.50;48.38
4745;BME280;2386;42.138;24.746;2022-10-16T14:10:34;100518.03;;;18.51;49.08
4745;BME280;2386;42.138;24.746;2022-10-16T14:13:05;100511.66;;;18.45;48.67
4745;BME280;2386;42.138;24.746;2022-10-16T14:15:33;100522.63;;;18.45;49.40
4745;BME280;2386;42.138;24.746;2022-10-16T14:17:59;100523.41;;;18.41;49.52
4745;BME280;2386;42.138;24.746;2022-10-16T14:20:28;100521.75;;;18.39;49.47
4745;BME280;2386;42.138;24.746;2022-10-16T14:25:51;100518.13;;;18.34;49.04
4745;BME280;2386;42.138;24.746;2022-10-16T14:28:22;100521.72;;;18.34;50.00
4745;BME280;2386;42.138;24.746;2022-10-16T14:30:54;100524.97;;;18.31;50.13
4745;BME280;2386;42.138;24.746;2022-10-16T14:36:01;100522.19;;;18.26;50.23
4745;BME280;2386;42.138;24.746;2022-10-16T14:38:28;100513.06;;;18.21;50.41
4745;BME280;2386;42.138;24.746;2022-10-16T14:40:54;100514.97;;;18.20;50.21
4745;BME280;2386;42.138;24.746;2022-10-16T14:43:33;100517.72;;;18.20;49.97
4745;BME280;2386;42.138;24.746;2022-10-16T14:46:01;100520.72;;;18.19;50.43
4745;BME280;2386;42.138;24.746;2022-10-16T14:48:27;100514.59;;;18.12;50.85
4745;BME280;2386;42.138;24.746;2022-10-16T14:50:53;100516.47;;;18.06;51.30
4745;BME280;2386;42.138;24.746;2022-10-16T14:53:19;100523.94;;;18.11;51.72
4745;BME280;2386;42.138;24.746;2022-10-16T14:55:44;100518.66;;;18.04;51.95
4745;BME280;2386;42.138;24.746;2022-10-16T14:58:20;100526.31;;;18.02;51.94
4745;BME280;2386;42.138;24.746;2022-10-16T15:00:47;100524.06;;;17.99;51.72
4745;BME280;2386;42.138;24.746;2022-10-16T15:03:13;100518.00;;;17.97;52.63
4745;BME280;2386;42.138;24.746;2022-10-16T15:05:38;100519.28;;;17.89;52.56
4745;BME280;2386;42.138;24.746;2022-10-16T15:08:04;100526.69;;;17.89;49.99
4745;BME280;2386;42.138;24.746;2022-10-16T15:10:31;100526.69;;;17.89;50.37